JES3100 SABE-SACO
Flight info
| Callsign | JES3100 |
|---|---|
| Flight time | 1h 7m |
| Altitude | 34000 |
| Route | ATOVO4B ATOVO UW5 ASISA ASISA1U |
| Aircraft | A320/M-SDE3FGHIRWY/LB1 |
Departure
| Time | 2026-05-09 01:31 |
|---|---|
| Airport | Aeroparque Jorge Newbery (SABE) |
Arrival
| Time | 2026-05-09 02:38 |
|---|---|
| Airport | Ingeniero Aeronáutico Ambrosio L.V. Taravella International Airport (SACO) |
| Time | Latitude | Longitude | Altitude | Speed | Heading |
|---|---|---|---|---|---|
| 2026-05-09 01:09 | -34.55757 | -58.41323 | 26 ft | 0 kts | 35° |
| 2026-05-09 01:17 | -34.55774 | -58.41337 | 29 ft | 3 kts | 36° |
| 2026-05-09 01:17 | -34.55786 | -58.41347 | 26 ft | 2 kts | 2° |
| 2026-05-09 01:18 | -34.55797 | -58.41346 | 29 ft | 2 kts | 324° |
| 2026-05-09 01:18 | -34.55806 | -58.41337 | 31 ft | 2 kts | 313° |
| 2026-05-09 01:18 | -34.55813 | -58.41327 | 29 ft | 2 kts | 305° |
| 2026-05-09 01:18 | -34.55817 | -58.41320 | 30 ft | 0 kts | 304° |
| 2026-05-09 01:25 | -34.55800 | -58.41352 | 28 ft | 11 kts | 304° |
| 2026-05-09 01:26 | -34.55762 | -58.41419 | 28 ft | 16 kts | 304° |
| 2026-05-09 01:26 | -34.55722 | -58.41537 | 25 ft | 14 kts | 258° |
| 2026-05-09 01:26 | -34.55810 | -58.41573 | 28 ft | 10 kts | 121° |
| 2026-05-09 01:26 | -34.55836 | -58.41512 | 29 ft | 14 kts | 117° |
| 2026-05-09 01:27 | -34.55889 | -58.41388 | 25 ft | 18 kts | 118° |
| 2026-05-09 01:27 | -34.55987 | -58.41200 | 29 ft | 25 kts | 127° |
| 2026-05-09 01:27 | -34.56062 | -58.41081 | 28 ft | 27 kts | 127° |
| 2026-05-09 01:27 | -34.56165 | -58.40900 | 25 ft | 15 kts | 118° |
| 2026-05-09 01:28 | -34.56197 | -58.40784 | 29 ft | 15 kts | 124° |
| 2026-05-09 01:28 | -34.56261 | -58.40671 | 27 ft | 17 kts | 124° |
| 2026-05-09 01:28 | -34.56341 | -58.40550 | 28 ft | 20 kts | 137° |
| 2026-05-09 01:28 | -34.56397 | -58.40488 | 26 ft | 0 kts | 138° |
| 2026-05-09 01:29 | -34.56401 | -58.40484 | 27 ft | 2 kts | 137° |
| 2026-05-09 01:29 | -34.56447 | -58.40434 | 29 ft | 18 kts | 138° |
| 2026-05-09 01:29 | -34.56542 | -58.40399 | 28 ft | 15 kts | 216° |
| 2026-05-09 01:30 | -34.56514 | -58.40521 | 25 ft | 28 kts | 303° |
| 2026-05-09 01:30 | -34.56269 | -58.40962 | 28 ft | 93 kts | 304° |
| 2026-05-09 01:30 | -34.55814 | -58.41780 | 36 ft | 137 kts | 302° |
| 2026-05-09 01:30 | -34.55284 | -58.42767 | 458 ft | 141 kts | 300° |
| 2026-05-09 01:31 | -34.54750 | -58.43768 | 987 ft | 142 kts | 297° |
| 2026-05-09 01:31 | -34.54071 | -58.44713 | 1320 ft | 163 kts | 309° |
| 2026-05-09 01:31 | -34.53043 | -58.45578 | 1527 ft | 198 kts | 325° |
| 2026-05-09 01:31 | -34.51611 | -58.46160 | 1722 ft | 239 kts | 344° |
| 2026-05-09 01:32 | -34.49813 | -58.46088 | 2022 ft | 280 kts | 10° |
| 2026-05-09 01:32 | -34.48047 | -58.45004 | 2965 ft | 287 kts | 30° |
| 2026-05-09 01:32 | -34.46380 | -58.43674 | 3950 ft | 288 kts | 29° |
| 2026-05-09 01:32 | -34.44676 | -58.42379 | 4863 ft | 291 kts | 28° |
| 2026-05-09 01:33 | -34.42941 | -58.41091 | 5792 ft | 293 kts | 28° |
| 2026-05-09 01:33 | -34.41184 | -58.39833 | 6668 ft | 293 kts | 21° |
| 2026-05-09 01:33 | -34.39253 | -58.39173 | 7513 ft | 287 kts | 358° |
| 2026-05-09 01:33 | -34.37312 | -58.39431 | 8361 ft | 278 kts | 336° |
| 2026-05-09 01:34 | -34.35641 | -58.40516 | 9208 ft | 271 kts | 315° |
| 2026-05-09 01:34 | -34.34421 | -58.42231 | 10001 ft | 269 kts | 300° |
| 2026-05-09 01:34 | -34.33368 | -58.44184 | 10332 ft | 289 kts | 300° |
| 2026-05-09 01:34 | -34.32228 | -58.46292 | 10630 ft | 306 kts | 300° |
| 2026-05-09 01:35 | -34.31041 | -58.48467 | 11263 ft | 312 kts | 300° |
| 2026-05-09 01:35 | -34.29849 | -58.50639 | 11935 ft | 315 kts | 300° |
| 2026-05-09 01:35 | -34.28630 | -58.52852 | 12663 ft | 318 kts | 301° |
| 2026-05-09 01:35 | -34.27398 | -58.55088 | 13350 ft | 321 kts | 301° |
| 2026-05-09 01:36 | -34.26154 | -58.57345 | 13986 ft | 324 kts | 301° |
| 2026-05-09 01:36 | -34.24901 | -58.59625 | 14605 ft | 326 kts | 301° |
| 2026-05-09 01:36 | -34.23641 | -58.61919 | 15228 ft | 328 kts | 301° |
| 2026-05-09 01:36 | -34.22370 | -58.64227 | 15842 ft | 330 kts | 301° |
| 2026-05-09 01:37 | -34.21094 | -58.66543 | 16460 ft | 332 kts | 301° |
| 2026-05-09 01:37 | -34.19811 | -58.68873 | 17079 ft | 334 kts | 301° |
| 2026-05-09 01:37 | -34.18514 | -58.71221 | 17696 ft | 336 kts | 301° |
| 2026-05-09 01:37 | -34.17211 | -58.73579 | 18287 ft | 339 kts | 301° |
| 2026-05-09 01:38 | -34.15897 | -58.75957 | 18790 ft | 342 kts | 301° |
| 2026-05-09 01:38 | -34.14571 | -58.78357 | 19284 ft | 345 kts | 301° |
| 2026-05-09 01:38 | -34.13235 | -58.80778 | 19789 ft | 348 kts | 301° |
| 2026-05-09 01:38 | -34.11882 | -58.83225 | 20280 ft | 352 kts | 301° |
| 2026-05-09 01:39 | -34.10516 | -58.85692 | 20746 ft | 356 kts | 301° |
| 2026-05-09 01:39 | -34.09146 | -58.88159 | 21167 ft | 360 kts | 301° |
| 2026-05-09 01:39 | -34.07745 | -58.90679 | 21593 ft | 364 kts | 301° |
| 2026-05-09 01:39 | -34.06330 | -58.93225 | 22023 ft | 367 kts | 301° |
| 2026-05-09 01:40 | -34.04901 | -58.95797 | 22454 ft | 371 kts | 301° |
| 2026-05-09 01:40 | -34.03458 | -58.98396 | 22900 ft | 375 kts | 301° |
| 2026-05-09 01:40 | -34.01997 | -59.01027 | 23325 ft | 378 kts | 302° |
| 2026-05-09 01:40 | -34.00523 | -59.03675 | 23708 ft | 382 kts | 302° |
| 2026-05-09 01:41 | -33.99033 | -59.06348 | 24084 ft | 384 kts | 302° |
| 2026-05-09 01:41 | -33.97538 | -59.09025 | 24477 ft | 386 kts | 302° |
| 2026-05-09 01:41 | -33.96031 | -59.11722 | 24866 ft | 389 kts | 302° |
| 2026-05-09 01:41 | -33.94513 | -59.14437 | 25246 ft | 391 kts | 303° |
| 2026-05-09 01:42 | -33.93007 | -59.17134 | 25628 ft | 393 kts | 303° |
| 2026-05-09 01:42 | -33.91470 | -59.19882 | 26003 ft | 395 kts | 303° |
| 2026-05-09 01:42 | -33.89926 | -59.22642 | 26374 ft | 398 kts | 303° |
| 2026-05-09 01:42 | -33.88373 | -59.25411 | 26736 ft | 400 kts | 303° |
| 2026-05-09 01:43 | -33.86809 | -59.28193 | 27097 ft | 402 kts | 303° |
| 2026-05-09 01:43 | -33.85259 | -59.30951 | 27447 ft | 404 kts | 304° |
| 2026-05-09 01:43 | -33.83680 | -59.33762 | 27812 ft | 406 kts | 304° |
| 2026-05-09 01:43 | -33.82095 | -59.36585 | 28178 ft | 409 kts | 304° |
| 2026-05-09 01:44 | -33.80493 | -59.39435 | 28536 ft | 411 kts | 304° |
| 2026-05-09 01:44 | -33.78885 | -59.42296 | 28881 ft | 413 kts | 304° |
| 2026-05-09 01:44 | -33.77269 | -59.45170 | 29233 ft | 416 kts | 304° |
| 2026-05-09 01:44 | -33.75641 | -59.48059 | 29585 ft | 418 kts | 304° |
| 2026-05-09 01:45 | -33.74004 | -59.50961 | 29936 ft | 420 kts | 305° |
| 2026-05-09 01:45 | -33.72357 | -59.53879 | 30223 ft | 423 kts | 304° |
| 2026-05-09 01:45 | -33.70726 | -59.56772 | 30526 ft | 424 kts | 304° |
| 2026-05-09 01:45 | -33.69070 | -59.59708 | 30906 ft | 423 kts | 304° |
| 2026-05-09 01:46 | -33.67421 | -59.62620 | 31431 ft | 420 kts | 304° |
| 2026-05-09 01:46 | -33.65774 | -59.65518 | 31899 ft | 418 kts | 304° |
| 2026-05-09 01:46 | -33.64137 | -59.68398 | 32333 ft | 417 kts | 304° |
| 2026-05-09 01:46 | -33.62507 | -59.71267 | 32759 ft | 416 kts | 304° |
| 2026-05-09 01:47 | -33.60877 | -59.74139 | 33177 ft | 415 kts | 304° |
| 2026-05-09 01:47 | -33.59270 | -59.76972 | 33584 ft | 414 kts | 303° |
| 2026-05-09 01:47 | -33.57651 | -59.79827 | 33864 ft | 415 kts | 303° |
| 2026-05-09 01:47 | -33.56032 | -59.82677 | 33923 ft | 412 kts | 303° |
| 2026-05-09 01:48 | -33.52807 | -59.88337 | 33926 ft | 409 kts | 303° |
| 2026-05-09 01:48 | -33.49583 | -59.93980 | 33929 ft | 410 kts | 303° |
| 2026-05-09 01:49 | -33.46359 | -59.99622 | 33935 ft | 410 kts | 303° |
| 2026-05-09 01:49 | -33.43129 | -60.05269 | 33934 ft | 411 kts | 303° |
| 2026-05-09 01:50 | -33.39893 | -60.10911 | 33941 ft | 411 kts | 303° |
| 2026-05-09 01:50 | -33.36674 | -60.16516 | 33938 ft | 410 kts | 303° |
| 2026-05-09 01:51 | -33.33437 | -60.22145 | 33960 ft | 410 kts | 303° |
| 2026-05-09 01:51 | -33.30191 | -60.27783 | 33963 ft | 411 kts | 303° |
| 2026-05-09 01:52 | -33.26948 | -60.33415 | 33974 ft | 411 kts | 303° |
| 2026-05-09 01:52 | -33.23702 | -60.39037 | 33976 ft | 411 kts | 303° |
| 2026-05-09 01:53 | -33.20469 | -60.44627 | 33968 ft | 410 kts | 303° |
| 2026-05-09 01:53 | -33.17229 | -60.50215 | 33988 ft | 409 kts | 303° |
| 2026-05-09 01:54 | -33.13980 | -60.55807 | 33985 ft | 409 kts | 303° |
| 2026-05-09 01:54 | -33.10737 | -60.61385 | 33989 ft | 409 kts | 303° |
| 2026-05-09 01:55 | -33.07488 | -60.66968 | 33992 ft | 409 kts | 303° |
| 2026-05-09 01:55 | -33.04241 | -60.72545 | 33961 ft | 409 kts | 303° |
| 2026-05-09 01:56 | -33.01016 | -60.78081 | 33969 ft | 408 kts | 303° |
| 2026-05-09 01:56 | -32.97769 | -60.83640 | 33964 ft | 408 kts | 303° |
| 2026-05-09 01:57 | -32.94514 | -60.89190 | 33964 ft | 408 kts | 303° |
| 2026-05-09 01:57 | -32.91263 | -60.94733 | 34012 ft | 408 kts | 303° |
| 2026-05-09 01:58 | -32.88033 | -61.00237 | 34013 ft | 408 kts | 303° |
| 2026-05-09 01:58 | -32.84781 | -61.05773 | 34019 ft | 408 kts | 303° |
| 2026-05-09 01:59 | -32.81518 | -61.11312 | 34011 ft | 408 kts | 303° |
| 2026-05-09 01:59 | -32.78255 | -61.16841 | 34010 ft | 409 kts | 303° |
| 2026-05-09 02:00 | -32.75008 | -61.22340 | 34015 ft | 409 kts | 303° |
| 2026-05-09 02:00 | -32.71740 | -61.27866 | 33999 ft | 408 kts | 303° |
| 2026-05-09 02:01 | -32.68472 | -61.33384 | 34017 ft | 408 kts | 303° |
| 2026-05-09 02:01 | -32.65197 | -61.38907 | 34016 ft | 409 kts | 303° |
| 2026-05-09 02:02 | -32.61910 | -61.44429 | 34014 ft | 410 kts | 303° |
| 2026-05-09 02:02 | -32.58642 | -61.49925 | 34023 ft | 410 kts | 303° |
| 2026-05-09 02:03 | -32.55352 | -61.55455 | 34011 ft | 410 kts | 303° |
| 2026-05-09 02:03 | -32.52061 | -61.60974 | 34030 ft | 410 kts | 303° |
| 2026-05-09 02:04 | -32.48763 | -61.66486 | 34037 ft | 410 kts | 303° |
| 2026-05-09 02:04 | -32.45466 | -61.71993 | 34046 ft | 409 kts | 303° |
| 2026-05-09 02:05 | -32.42173 | -61.77489 | 34050 ft | 409 kts | 303° |
| 2026-05-09 02:05 | -32.38876 | -61.82981 | 34016 ft | 409 kts | 302° |
| 2026-05-09 02:06 | -32.35581 | -61.88461 | 34038 ft | 408 kts | 302° |
| 2026-05-09 02:07 | -32.30906 | -61.96858 | 34048 ft | 407 kts | 298° |
| 2026-05-09 02:07 | -32.27918 | -62.02503 | 34040 ft | 409 kts | 301° |
| 2026-05-09 02:08 | -32.24719 | -62.08079 | 34043 ft | 410 kts | 302° |
| 2026-05-09 02:08 | -32.21512 | -62.13652 | 34021 ft | 410 kts | 301° |
| 2026-05-09 02:09 | -32.18343 | -62.19247 | 34041 ft | 410 kts | 300° |
| 2026-05-09 02:09 | -32.15177 | -62.24861 | 34035 ft | 411 kts | 300° |
| 2026-05-09 02:10 | -32.12001 | -62.30470 | 34033 ft | 412 kts | 300° |
| 2026-05-09 02:10 | -32.08808 | -62.36102 | 34034 ft | 413 kts | 300° |
| 2026-05-09 02:11 | -32.05628 | -62.41694 | 34014 ft | 413 kts | 300° |
| 2026-05-09 02:11 | -32.02421 | -62.47326 | 34037 ft | 413 kts | 300° |
| 2026-05-09 02:12 | -31.99217 | -62.52956 | 34059 ft | 413 kts | 299° |
| 2026-05-09 02:12 | -31.97621 | -62.55747 | 33824 ft | 407 kts | 299° |
| 2026-05-09 02:12 | -31.96054 | -62.58479 | 33554 ft | 398 kts | 299° |
| 2026-05-09 02:12 | -31.95011 | -62.60297 | 33375 ft | 394 kts | 299° |
| 2026-05-09 02:13 | -31.93488 | -62.62951 | 33113 ft | 389 kts | 299° |
| 2026-05-09 02:13 | -31.91499 | -62.66430 | 32764 ft | 384 kts | 298° |
| 2026-05-09 02:13 | -31.90516 | -62.68155 | 32604 ft | 382 kts | 298° |
| 2026-05-09 02:13 | -31.89033 | -62.70754 | 32347 ft | 379 kts | 298° |
| 2026-05-09 02:14 | -31.87570 | -62.73308 | 32045 ft | 374 kts | 298° |
| 2026-05-09 02:14 | -31.86120 | -62.75831 | 31797 ft | 370 kts | 298° |
| 2026-05-09 02:14 | -31.84684 | -62.78325 | 31554 ft | 366 kts | 298° |
| 2026-05-09 02:14 | -31.83261 | -62.80797 | 31306 ft | 363 kts | 298° |
| 2026-05-09 02:15 | -31.81851 | -62.83247 | 31078 ft | 360 kts | 297° |
| 2026-05-09 02:15 | -31.80452 | -62.85681 | 30843 ft | 359 kts | 297° |
| 2026-05-09 02:15 | -31.79057 | -62.88103 | 30615 ft | 354 kts | 297° |
| 2026-05-09 02:15 | -31.77684 | -62.90481 | 30294 ft | 350 kts | 297° |
| 2026-05-09 02:16 | -31.76321 | -62.92837 | 29901 ft | 346 kts | 297° |
| 2026-05-09 02:16 | -31.74977 | -62.95161 | 29525 ft | 341 kts | 297° |
| 2026-05-09 02:16 | -31.73671 | -62.97427 | 29182 ft | 337 kts | 297° |
| 2026-05-09 02:16 | -31.72367 | -62.99692 | 28839 ft | 332 kts | 297° |
| 2026-05-09 02:17 | -31.71080 | -63.01923 | 28492 ft | 328 kts | 297° |
| 2026-05-09 02:17 | -31.69808 | -63.04121 | 28175 ft | 322 kts | 296° |
| 2026-05-09 02:17 | -31.68561 | -63.06276 | 27858 ft | 317 kts | 296° |
| 2026-05-09 02:17 | -31.67329 | -63.08405 | 27535 ft | 312 kts | 296° |
| 2026-05-09 02:18 | -31.66118 | -63.10495 | 27228 ft | 308 kts | 296° |
| 2026-05-09 02:18 | -31.64921 | -63.12557 | 26905 ft | 303 kts | 296° |
| 2026-05-09 02:18 | -31.63740 | -63.14590 | 26593 ft | 300 kts | 296° |
| 2026-05-09 02:18 | -31.62570 | -63.16609 | 26279 ft | 298 kts | 296° |
| 2026-05-09 02:19 | -31.61407 | -63.18615 | 25957 ft | 296 kts | 296° |
| 2026-05-09 02:19 | -31.60252 | -63.20610 | 25645 ft | 294 kts | 296° |
| 2026-05-09 02:19 | -31.59106 | -63.22589 | 25323 ft | 293 kts | 296° |
| 2026-05-09 02:19 | -31.57963 | -63.24559 | 24995 ft | 291 kts | 296° |
| 2026-05-09 02:20 | -31.56828 | -63.26512 | 24668 ft | 289 kts | 296° |
| 2026-05-09 02:20 | -31.55710 | -63.28432 | 24346 ft | 287 kts | 296° |
| 2026-05-09 02:20 | -31.54586 | -63.30363 | 24030 ft | 286 kts | 296° |
| 2026-05-09 02:20 | -31.53469 | -63.32281 | 23692 ft | 284 kts | 296° |
| 2026-05-09 02:21 | -31.52359 | -63.34188 | 23312 ft | 281 kts | 296° |
| 2026-05-09 02:21 | -31.51256 | -63.36077 | 22989 ft | 280 kts | 296° |
| 2026-05-09 02:21 | -31.50157 | -63.37957 | 22653 ft | 279 kts | 296° |
| 2026-05-09 02:21 | -31.49063 | -63.39834 | 22335 ft | 278 kts | 295° |
| 2026-05-09 02:22 | -31.47973 | -63.41709 | 22011 ft | 278 kts | 295° |
| 2026-05-09 02:22 | -31.46884 | -63.43580 | 21680 ft | 277 kts | 295° |
| 2026-05-09 02:22 | -31.45796 | -63.45444 | 21355 ft | 277 kts | 295° |
| 2026-05-09 02:22 | -31.44708 | -63.47305 | 21030 ft | 277 kts | 295° |
| 2026-05-09 02:23 | -31.43632 | -63.49140 | 20708 ft | 276 kts | 295° |
| 2026-05-09 02:23 | -31.42545 | -63.50997 | 20382 ft | 276 kts | 295° |
| 2026-05-09 02:23 | -31.41461 | -63.52848 | 20055 ft | 275 kts | 295° |
| 2026-05-09 02:23 | -31.40378 | -63.54698 | 19722 ft | 275 kts | 294° |
| 2026-05-09 02:24 | -31.39297 | -63.56545 | 19391 ft | 275 kts | 294° |
| 2026-05-09 02:24 | -31.38215 | -63.58391 | 19066 ft | 275 kts | 294° |
| 2026-05-09 02:24 | -31.37133 | -63.60238 | 18745 ft | 275 kts | 294° |
| 2026-05-09 02:24 | -31.36051 | -63.62082 | 18407 ft | 275 kts | 294° |
| 2026-05-09 02:25 | -31.34971 | -63.63923 | 18035 ft | 274 kts | 294° |
| 2026-05-09 02:25 | -31.33892 | -63.65755 | 17709 ft | 272 kts | 294° |
| 2026-05-09 02:25 | -31.32805 | -63.67606 | 17014 ft | 281 kts | 294° |
| 2026-05-09 02:25 | -31.31672 | -63.69557 | 16020 ft | 299 kts | 295° |
| 2026-05-09 02:26 | -31.30485 | -63.71602 | 15240 ft | 306 kts | 295° |
| 2026-05-09 02:26 | -31.29274 | -63.73665 | 14389 ft | 307 kts | 295° |
| 2026-05-09 02:26 | -31.28058 | -63.75718 | 13535 ft | 308 kts | 296° |
| 2026-05-09 02:26 | -31.26854 | -63.77748 | 12731 ft | 307 kts | 297° |
| 2026-05-09 02:27 | -31.25630 | -63.79813 | 11956 ft | 304 kts | 298° |
| 2026-05-09 02:27 | -31.24455 | -63.81794 | 11417 ft | 295 kts | 299° |
| 2026-05-09 02:27 | -31.23304 | -63.83730 | 10989 ft | 284 kts | 299° |
| 2026-05-09 02:27 | -31.22200 | -63.85586 | 10649 ft | 273 kts | 300° |
| 2026-05-09 02:28 | -31.21121 | -63.87407 | 10326 ft | 272 kts | 300° |
| 2026-05-09 02:28 | -31.20050 | -63.89225 | 9994 ft | 271 kts | 301° |
| 2026-05-09 02:28 | -31.18983 | -63.91040 | 9643 ft | 271 kts | 301° |
| 2026-05-09 02:28 | -31.17918 | -63.92848 | 9309 ft | 269 kts | 301° |
| 2026-05-09 02:29 | -31.16858 | -63.94642 | 8976 ft | 268 kts | 302° |
| 2026-05-09 02:29 | -31.15801 | -63.96432 | 8653 ft | 266 kts | 302° |
| 2026-05-09 02:29 | -31.14750 | -63.98209 | 8324 ft | 265 kts | 302° |
| 2026-05-09 02:29 | -31.13701 | -63.99982 | 8007 ft | 264 kts | 303° |
| 2026-05-09 02:30 | -31.12657 | -64.01743 | 7680 ft | 264 kts | 303° |
| 2026-05-09 02:30 | -31.11614 | -64.03505 | 7360 ft | 263 kts | 303° |
| 2026-05-09 02:30 | -31.10573 | -64.05263 | 7025 ft | 263 kts | 304° |
| 2026-05-09 02:30 | -31.09532 | -64.07016 | 6705 ft | 263 kts | 305° |
| 2026-05-09 02:31 | -31.08624 | -64.08860 | 6379 ft | 263 kts | 292° |
| 2026-05-09 02:31 | -31.08188 | -64.10898 | 6229 ft | 255 kts | 276° |
| 2026-05-09 02:31 | -31.08197 | -64.12915 | 6137 ft | 241 kts | 267° |
| 2026-05-09 02:31 | -31.08294 | -64.14788 | 6038 ft | 223 kts | 267° |
| 2026-05-09 02:32 | -31.08382 | -64.16532 | 5938 ft | 210 kts | 266° |
| 2026-05-09 02:32 | -31.08464 | -64.18181 | 5845 ft | 203 kts | 266° |
| 2026-05-09 02:32 | -31.08676 | -64.19780 | 5767 ft | 195 kts | 245° |
| 2026-05-09 02:32 | -31.09525 | -64.20887 | 5647 ft | 178 kts | 209° |
| 2026-05-09 02:33 | -31.10696 | -64.21160 | 5396 ft | 168 kts | 178° |
| 2026-05-09 02:33 | -31.11822 | -64.21128 | 5150 ft | 156 kts | 181° |
| 2026-05-09 02:33 | -31.12879 | -64.21121 | 4958 ft | 149 kts | 181° |
| 2026-05-09 02:33 | -31.13897 | -64.21109 | 4759 ft | 145 kts | 181° |
| 2026-05-09 02:34 | -31.14900 | -64.21095 | 4559 ft | 143 kts | 180° |
| 2026-05-09 02:34 | -31.15890 | -64.21079 | 4365 ft | 142 kts | 180° |
| 2026-05-09 02:34 | -31.16875 | -64.21064 | 4173 ft | 141 kts | 181° |
| 2026-05-09 02:34 | -31.17853 | -64.21048 | 3982 ft | 140 kts | 180° |
| 2026-05-09 02:35 | -31.18820 | -64.21032 | 3800 ft | 138 kts | 180° |
| 2026-05-09 02:35 | -31.19783 | -64.21017 | 3612 ft | 138 kts | 180° |
| 2026-05-09 02:35 | -31.20741 | -64.21001 | 3432 ft | 138 kts | 180° |
| 2026-05-09 02:35 | -31.21699 | -64.20986 | 3247 ft | 138 kts | 180° |
| 2026-05-09 02:36 | -31.22656 | -64.20970 | 3051 ft | 138 kts | 180° |
| 2026-05-09 02:36 | -31.23613 | -64.20954 | 2856 ft | 138 kts | 180° |
| 2026-05-09 02:36 | -31.24581 | -64.20938 | 2665 ft | 140 kts | 179° |
| 2026-05-09 02:36 | -31.25559 | -64.20919 | 2493 ft | 141 kts | 179° |
| 2026-05-09 02:37 | -31.26524 | -64.20897 | 2282 ft | 140 kts | 179° |
| 2026-05-09 02:37 | -31.27491 | -64.20888 | 2081 ft | 137 kts | 180° |
| 2026-05-09 02:37 | -31.28437 | -64.20878 | 1893 ft | 135 kts | 179° |
| 2026-05-09 02:37 | -31.29374 | -64.20864 | 1710 ft | 134 kts | 178° |
| 2026-05-09 02:38 | -31.30275 | -64.20849 | 1616 ft | 114 kts | 179° |
| 2026-05-09 02:38 | -31.30897 | -64.20837 | 1613 ft | 65 kts | 179° |
| 2026-05-09 02:38 | -31.31257 | -64.20831 | 1617 ft | 41 kts | 179° |
| 2026-05-09 02:38 | -31.31461 | -64.20868 | 1622 ft | 22 kts | 240° |
| 2026-05-09 02:39 | -31.31468 | -64.21001 | 1613 ft | 9 kts | 260° |
| 2026-05-09 02:39 | -31.31504 | -64.21070 | 1620 ft | 11 kts | 220° |
| 2026-05-09 02:39 | -31.31546 | -64.21107 | 1617 ft | 6 kts | 279° |
| 2026-05-09 02:39 | -31.31550 | -64.21161 | 1619 ft | 6 kts | 257° |
| 2026-05-09 02:40 | -31.31552 | -64.21171 | 1617 ft | 0 kts | 258° |